Time;durP1;ratioP1;P1;durP2;ratioP2;P2;SDS_P1;SDS_P2;PMS_P1;PMS_P2;Temp;Humidity;BMP_temperature;BMP_pressure;BME280_temperature;BME280_humidity;BME280_pressure;Samples;Min_cycle;Max_cycle;Signal;HPM_P1;HPM_P2
2022/04/01 00:00:35;;;;;;;39.03;21.05;;;;;;;1.60;80.95;98602.19;4976231;28;20050;-74
2022/04/01 00:03:01;;;;;;;37.25;21.08;;;;;;;1.78;80.93;98632.25;4953738;28;20090;-75
2022/04/01 00:05:27;;;;;;;37.03;18.95;;;;;;;1.68;81.91;98613.38;4999374;28;20046;-74
2022/04/01 00:07:53;;;;;;;35.42;19.92;;;;;;;1.80;81.33;98634.88;4964685;28;20141;-77
2022/04/01 00:10:18;;;;;;;38.75;22.13;;;;;;;1.68;81.29;98618.50;4946343;28;20145;-75
2022/04/01 00:12:45;;;;;;;35.58;20.88;;;;;;;1.57;81.58;98596.19;5004095;28;20549;-76
2022/04/01 00:15:12;;;;;;;36.88;19.85;;;;;;;1.64;81.74;98611.63;4983537;28;20429;-74
2022/04/01 00:17:39;;;;;;;34.00;19.10;;;;;;;1.78;81.69;98633.13;4991707;28;20027;-74
2022/04/01 00:20:05;;;;;;;33.58;18.52;;;;;;;1.79;81.65;98634.00;4992353;28;20469;-74
2022/04/01 00:22:30;;;;;;;30.25;18.65;;;;;;;1.72;82.02;98615.16;4975760;28;20129;-74
2022/04/01 00:24:57;;;;;;;33.55;18.92;;;;;;;1.76;81.32;98629.69;4959878;28;20038;-74
2022/04/01 00:27:23;;;;;;;33.05;18.77;;;;;;;1.73;81.84;98624.53;4976239;28;20034;-74
2022/04/01 00:29:49;;;;;;;29.80;17.25;;;;;;;1.89;80.92;98640.97;4976949;28;20057;-74
2022/04/01 00:32:14;;;;;;;28.75;17.23;;;;;;;1.68;80.75;98618.50;5008167;28;20460;-74
2022/04/01 00:34:40;;;;;;;36.35;24.30;;;;;;;1.77;80.80;98645.88;4977937;28;20043;-73
2022/04/01 00:37:06;;;;;;;27.73;17.40;;;;;;;1.79;81.79;98636.56;4959314;28;20085;-74
2022/04/01 00:39:32;;;;;;;26.70;16.27;;;;;;;1.80;81.61;98637.41;5024747;28;20499;-74
2022/04/01 00:42:01;;;;;;;24.83;15.63;;;;;;;1.84;81.33;98645.16;4959574;28;20042;-73
2022/04/01 00:44:30;;;;;;;23.20;15.07;;;;;;;1.74;81.10;98633.94;4975937;28;20039;-74
2022/04/01 00:46:57;;;;;;;24.15;15.23;;;;;;;1.85;81.21;98659.66;4991565;28;20042;-74
2022/04/01 00:49:23;;;;;;;23.83;15.43;;;;;;;1.71;81.12;98630.47;5008040;28;20081;-74
2022/04/01 00:51:50;;;;;;;22.65;14.88;;;;;;;1.61;81.21;98608.19;4959404;28;20042;-73
2022/04/01 00:54:16;;;;;;;23.50;15.10;;;;;;;1.70;80.86;98623.66;4968924;28;20042;-75
2022/04/01 00:56:42;;;;;;;21.58;14.23;;;;;;;1.64;80.45;98619.28;4972253;28;20030;-74
2022/04/01 00:59:08;;;;;;;24.92;15.77;;;;;;;1.69;79.91;98634.69;4972503;28;20481;-75
2022/04/01 01:01:34;;;;;;;22.23;15.13;;;;;;;1.66;80.32;98627.00;4956351;28;20039;-73
2022/04/01 01:04:07;;;;;;;24.83;15.73;;;;;;;1.90;80.96;98667.41;4972108;28;20043;-74
2022/04/01 01:06:37;;;;;;;25.08;15.68;;;;;;;1.75;80.87;98633.09;4955863;28;20102;-74
2022/04/01 01:09:02;;;;;;;22.52;14.25;;;;;;;1.62;80.70;98617.56;4972034;28;20065;-74
2022/04/01 01:11:29;;;;;;;;;;;;;;;1.93;80.83;98664.88;4988797;28;20637;-74
2022/04/01 01:13:55;;;;;;;23.20;14.85;;;;;;;1.84;80.08;98663.06;5005105;28;19914;-74
2022/04/01 01:16:21;;;;;;;22.45;14.25;;;;;;;1.68;80.83;98635.53;4975272;28;20049;-73
2022/04/01 01:18:59;;;;;;;22.95;14.60;;;;;;;1.84;81.00;98657.94;5008055;28;20034;-74
2022/04/01 01:21:26;;;;;;;21.88;14.35;;;;;;;1.84;81.46;98655.38;4975616;28;20038;-74
2022/04/01 01:23:51;;;;;;;23.42;14.88;;;;;;;1.92;80.99;98660.59;4963746;28;20517;-73
2022/04/01 01:26:18;;;;;;;23.48;15.55;;;;;;;1.91;81.15;98664.84;4971855;28;20053;-74
2022/04/01 01:28:44;;;;;;;24.35;15.20;;;;;;;1.89;81.04;98666.53;4991915;28;20052;-73
2022/04/01 01:31:10;;;;;;;27.30;16.00;;;;;;;1.63;80.37;98621.81;4981932;28;20038;-74
2022/04/01 01:33:36;;;;;;;;;;;;;;;1.91;81.08;98674.22;4977646;28;20041;-74
2022/04/01 01:36:02;;;;;;;23.95;15.27;;;;;;;1.66;80.64;98634.66;4981668;28;19918;-74
2022/04/01 01:38:27;;;;;;;24.10;14.77;;;;;;;1.85;81.36;98669.03;4975473;28;20552;-74
2022/04/01 01:40:53;;;;;;;24.33;15.38;;;;;;;1.50;81.24;98621.63;5011581;28;20516;-74
2022/04/01 01:43:21;;;;;;;24.10;15.88;;;;;;;1.77;81.63;98661.22;4996136;28;20034;-74
2022/04/01 01:45:48;;;;;;;25.25;16.45;;;;;;;1.63;81.14;98635.47;4980883;28;20042;-75
2022/04/01 01:48:16;;;;;;;25.55;16.48;;;;;;;1.82;81.77;98664.72;4996289;28;20108;-73
2022/04/01 01:56:10;;;;;;;31.00;19.27;;;;;;;1.66;81.17;98652.56;5004790;28;20452;-73
2022/04/01 01:58:40;;;;;;;26.85;17.10;;;;;;;1.69;81.31;98665.38;4963504;28;20067;-74
2022/04/01 02:01:06;;;;;;;26.95;16.90;;;;;;;1.76;81.22;98675.72;4978501;28;20057;-74
2022/04/01 02:03:32;;;;;;;27.27;17.15;;;;;;;1.65;82.04;98661.03;4994929;28;20077;-74
2022/04/01 02:05:58;;;;;;;26.35;16.42;;;;;;;1.64;81.39;98655.06;5027648;28;20069;-74
2022/04/01 02:08:23;;;;;;;25.33;15.65;;;;;;;1.51;81.27;98633.59;4980550;28;20055;-74
2022/04/01 02:10:49;;;;;;;25.30;16.13;;;;;;;1.78;81.45;98673.16;4999168;28;20049;-74
2022/04/01 02:13:15;;;;;;;25.38;15.85;;;;;;;1.68;81.86;98649.16;4992254;28;20049;-75
2022/04/01 02:15:42;;;;;;;26.35;16.67;;;;;;;1.64;81.50;98649.97;4962584;28;20054;-73
2022/04/01 02:18:10;;;;;;;24.60;15.15;;;;;;;1.64;81.51;98652.50;4948415;28;20035;-75
2022/04/01 02:20:37;;;;;;;22.52;14.85;;;;;;;1.59;81.17;98649.03;4994607;28;20065;-74
2022/04/01 02:23:04;;;;;;;24.77;15.63;;;;;;;1.73;81.21;98664.56;4978194;28;20061;-74
2022/04/01 02:25:31;;;;;;;22.92;14.23;;;;;;;1.51;80.92;98637.81;4978259;28;20081;-74
2022/04/01 02:27:58;;;;;;;22.80;14.60;;;;;;;1.59;81.63;98655.84;4962351;28;20034;-74
2022/04/01 02:30:24;;;;;;;22.42;14.35;;;;;;;1.41;81.33;98625.75;4977906;28;20042;-74
2022/04/01 02:33:08;;;;;;;24.20;14.45;;;;;;;1.73;81.97;98667.13;4996146;28;20068;-75
2022/04/01 02:35:42;;;;;;;23.45;14.48;;;;;;;1.70;81.97;98660.28;4974263;28;20046;-74
2022/04/01 02:38:09;;;;;;;21.80;12.43;;;;;;;1.63;81.59;98637.16;4985706;28;20508;-73
2022/04/01 02:40:36;;;;;;;22.23;13.55;;;;;;;1.82;81.08;98659.59;5026645;28;20026;-73
2022/04/01 02:43:03;;;;;;;25.00;14.38;;;;;;;1.67;80.76;98642.34;4994645;28;20050;-73
2022/04/01 02:45:31;;;;;;;28.95;17.25;;;;;;;1.74;81.14;98651.84;4948659;28;20039;-73
2022/04/01 02:47:57;;;;;;;26.15;14.65;;;;;;;1.62;80.75;98635.44;5027291;28;20057;-74
2022/04/01 02:50:27;;;;;;;26.27;14.20;;;;;;;1.68;80.97;98640.66;4964106;28;20486;-74
2022/04/01 02:52:53;;;;;;;25.42;14.10;;;;;;;1.60;80.84;98637.09;4962031;28;20048;-74
2022/04/01 02:55:19;;;;;;;27.35;14.68;;;;;;;1.74;80.97;98653.50;4999367;28;20137;-74
2022/04/01 02:57:45;;;;;;;29.65;15.05;;;;;;;1.56;81.30;98627.66;4975351;28;20042;-74
2022/04/01 03:00:21;;;;;;;26.60;15.07;;;;;;;1.79;81.35;98659.56;4962537;28;20069;-74
2022/04/01 03:02:54;;;;;;;31.38;15.48;;;;;;;1.74;80.84;98662.06;4993558;28;20042;-73
2022/04/01 03:05:21;;;;;;;;;;;;;;;1.78;81.02;98668.06;5011056;28;20066;-73
2022/04/01 03:07:47;;;;;;;29.05;14.48;;;;;;;1.60;81.18;98634.56;4972156;28;19983;-73
2022/04/01 03:10:14;;;;;;;26.88;14.63;;;;;;;1.67;81.34;98639.78;4961939;28;20053;-75
2022/04/01 03:12:40;;;;;;;30.60;15.70;;;;;;;1.84;81.00;98663.06;4972468;28;20445;-75
2022/04/01 03:15:20;;;;;;;28.88;14.77;;;;;;;1.86;81.06;98663.94;4964745;28;20049;-74
2022/04/01 03:18:10;;;;;;;26.45;13.57;;;;;;;1.84;81.04;98641.75;4986897;28;20042;-73
2022/04/01 03:20:40;;;;;;;26.55;13.88;;;;;;;1.78;80.98;98634.81;5010139;28;20038;-74
2022/04/01 03:23:07;;;;;;;24.85;13.65;;;;;;;1.65;80.56;98612.47;4993701;28;20038;-74
2022/04/01 03:25:41;;;;;;;25.38;13.48;;;;;;;1.70;80.03;98621.09;4963115;28;20124;-74
2022/04/01 03:28:13;;;;;;;25.83;13.70;;;;;;;1.59;80.47;98607.28;4978182;28;20461;-74
2022/04/01 03:30:40;;;;;;;27.08;13.40;;;;;;;1.84;80.04;98646.84;5000932;28;20439;-74
2022/04/01 03:33:06;;;;;;;25.50;13.32;;;;;;;1.58;80.04;98611.53;5015427;28;20124;-76
2022/04/01 03:35:32;;;;;;;;;;;;;;;1.84;80.19;98649.41;4961123;28;20041;-74
2022/04/01 03:37:59;;;;;;;22.27;12.30;;;;;;;1.78;80.33;98651.03;4994521;28;19918;-76
2022/04/01 03:40:27;;;;;;;22.40;12.55;;;;;;;1.76;80.36;98649.28;4961091;28;20050;-74
2022/04/01 03:42:55;;;;;;;22.85;12.68;;;;;;;1.66;80.34;98637.22;4999089;28;20502;-75
2022/04/01 03:45:22;;;;;;;21.35;12.43;;;;;;;1.70;80.42;98628.75;5001782;28;20035;-76
2022/04/01 03:48:00;;;;;;;22.42;12.40;;;;;;;1.78;80.11;98634.81;4972866;28;20019;-74
2022/04/01 03:50:33;;;;;;;21.13;12.52;;;;;;;1.81;79.14;98642.53;4990500;28;20046;-74
2022/04/01 03:53:06;;;;;;;20.48;11.98;;;;;;;1.77;79.46;98651.00;4951466;28;20038;-74
2022/04/01 03:55:37;;;;;;;21.30;11.40;;;;;;;1.89;79.70;98668.25;4991662;28;20425;-76
2022/04/01 03:58:27;;;;;;;20.08;11.80;;;;;;;1.93;79.60;98668.31;4993418;28;20088;-74
2022/04/01 04:01:13;;;;;;;18.08;10.93;;;;;;;1.88;79.67;98652.03;4964563;28;20109;-76
2022/04/01 04:03:39;;;;;;;18.40;11.57;;;;;;;1.90;79.24;98660.56;5000866;28;20419;-74
2022/04/01 04:06:09;;;;;;;19.65;12.02;;;;;;;1.67;79.25;98629.56;4970241;28;20035;-75
2022/04/01 04:08:36;;;;;;;27.42;17.85;;;;;;;1.81;79.73;98649.38;4953532;28;20063;-76
2022/04/01 04:11:03;;;;;;;17.98;11.45;;;;;;;1.61;78.83;98623.50;4969816;28;20130;-75
2022/04/01 04:13:56;;;;;;;18.63;10.82;;;;;;;1.55;78.58;98628.50;4966434;28;20039;-74
2022/04/01 04:16:39;;;;;;;15.70;10.38;;;;;;;1.91;79.56;98675.06;4969726;28;20525;-75
2022/04/01 04:19:09;;;;;;;15.95;9.77;;;;;;;1.90;78.98;98680.19;4984627;28;20126;-74
2022/04/01 04:21:41;;;;;;;15.60;9.95;;;;;;;1.70;78.59;98655.19;4970033;28;20043;-74
2022/04/01 04:24:18;;;;;;;12.65;8.77;;;;;;;1.70;78.28;98659.44;4954361;28;20043;-77
2022/04/01 04:26:48;;;;;;;23.60;16.58;;;;;;;1.80;77.69;98691.13;4953982;28;20529;-75
2022/04/01 04:29:15;;;;;;;13.25;8.65;;;;;;;1.59;78.77;98645.63;4969675;28;20031;-75
2022/04/01 04:32:04;;;;;;;11.63;7.82;;;;;;;1.85;77.99;98695.47;4944641;29;20073;-76
2022/04/01 04:34:40;;;;;;;9.60;6.80;;;;;;;1.66;77.69;98662.78;4953783;28;20397;-74
2022/04/01 04:37:10;;;;;;;11.15;8.48;;;;;;;1.78;77.84;98694.50;4969044;28;20530;-77
2022/04/01 04:39:43;;;;;;;11.85;8.48;;;;;;;1.59;77.65;98651.59;4971178;28;20483;-76
2022/04/01 04:42:11;;;;;;;11.52;8.25;;;;;;;1.81;76.90;98688.56;4969517;28;20067;-74
2022/04/01 04:44:38;;;;;;;10.90;7.75;;;;;;;1.66;77.30;98661.09;4975700;28;20514;-76
2022/04/01 04:47:07;;;;;;;10.20;7.60;;;;;;;1.61;77.49;98646.53;4982433;28;20113;-75
2022/04/01 04:49:33;;;;;;;12.32;8.90;;;;;;;1.94;77.37;98693.03;4992328;28;20125;-75
2022/04/01 04:52:00;;;;;;;13.25;9.25;;;;;;;1.68;76.22;98653.44;4992216;28;20141;-76
2022/04/01 04:54:28;;;;;;;12.20;9.10;;;;;;;1.76;76.05;98672.31;4992499;28;20030;-76
2022/04/01 04:57:20;;;;;;;12.15;9.07;;;;;;;1.65;75.67;98638.03;4991843;28;20062;-76
2022/04/01 04:59:46;;;;;;;12.30;8.85;;;;;;;1.90;75.92;98678.47;5002209;28;20498;-75
2022/04/01 05:02:58;;;;;;;13.57;9.55;;;;;;;2.03;75.26;98694.88;4969371;28;20138;-75
2022/04/01 05:05:31;;;;;;;12.95;9.45;;;;;;;1.94;75.17;98690.47;4955082;28;20104;-75
2022/04/01 05:08:38;;;;;;;13.25;9.93;;;;;;;2.05;75.77;98700.84;4951960;28;20089;-75
2022/04/01 05:11:23;;;;;;;12.77;9.10;;;;;;;2.05;75.81;98698.28;4993441;28;20468;-76
2022/04/01 05:13:59;;;;;;;;;;;;;;;2.13;75.99;98698.41;4992889;28;20100;-76
2022/04/01 05:16:36;;;;;;;12.40;8.95;;;;;;;1.84;75.52;98657.94;4992274;28;20017;-75
2022/04/01 05:19:17;;;;;;;20.80;13.82;;;;;;;2.12;75.09;98699.25;4992372;28;20265;-74
2022/04/01 05:22:04;;;;;;;13.07;9.30;;;;;;;2.02;75.44;98686.34;4992020;28;20050;-76
2022/04/01 05:24:48;;;;;;;12.63;9.05;;;;;;;2.03;75.17;98693.16;4995763;28;20084;-77
2022/04/01 05:27:25;;;;;;;16.38;11.23;;;;;;;2.09;75.56;98683.84;4988525;28;20090;-75
2022/04/01 05:30:13;;;;;;;18.17;12.27;;;;;;;2.07;75.27;98670.19;4972935;28;20501;-76
2022/04/01 05:33:08;;;;;;;14.15;9.43;;;;;;;2.13;74.72;98683.06;4994158;28;20541;-75
2022/04/01 05:35:37;;;;;;;13.80;9.80;;;;;;;1.99;74.86;98675.19;5006305;28;20508;-76
2022/04/01 05:38:04;;;;;;;14.68;9.65;;;;;;;1.78;74.58;98645.03;5008473;28;20030;-76
2022/04/01 05:40:30;;;;;;;13.23;8.88;;;;;;;2.05;74.95;98688.06;4975865;28;20136;-76
2022/04/01 05:42:59;;;;;;;15.50;9.30;;;;;;;1.90;75.44;98658.03;5008311;28;20030;-76
2022/04/01 05:45:45;;;;;;;14.15;9.20;;;;;;;1.93;75.04;98658.06;4978444;28;20077;-75
2022/04/01 05:48:13;;;;;;;13.70;9.15;;;;;;;1.96;75.20;98650.41;5011436;28;20046;-75
2022/04/01 05:50:39;;;;;;;14.18;9.30;;;;;;;2.15;74.90;98663.47;4977025;28;20394;-76
2022/04/01 05:53:06;;;;;;;14.57;9.20;;;;;;;2.37;74.47;98678.25;5008668;28;20112;-75
2022/04/01 05:55:42;;;;;;;15.65;9.75;;;;;;;2.40;74.06;98669.78;4963857;28;20127;-76
2022/04/01 05:58:08;;;;;;;;;;;;;;;2.62;74.77;98684.56;4992297;28;20074;-75
2022/04/01 06:00:51;;;;;;;14.02;8.38;;;;;;;2.42;73.33;98640.78;4991727;28;19940;-75
2022/04/01 06:03:40;;;;;;;13.70;9.00;;;;;;;2.41;73.01;98640.78;4953617;29;20039;-75
2022/04/01 06:06:10;;;;;;;15.00;9.63;;;;;;;2.74;73.55;98676.16;4973354;28;20069;-76
2022/04/01 06:08:36;;;;;;;16.98;11.77;;;;;;;2.74;72.58;98671.03;4956546;28;20516;-76
2022/04/01 06:11:18;;;;;;;13.48;8.48;;;;;;;2.67;72.73;98643.66;4988422;28;20039;-75
2022/04/01 06:14:52;;;;;;;13.38;8.45;;;;;;;2.86;72.12;98666.03;4951961;28;20043;-75
2022/04/01 06:18:14;;;;;;;11.93;7.57;;;;;;;2.85;71.98;98669.44;4961897;28;20077;-75
2022/04/01 06:20:41;;;;;;;10.70;7.20;;;;;;;2.67;71.75;98623.16;5004937;28;20046;-74
2022/04/01 06:23:14;;;;;;;11.27;7.43;;;;;;;2.88;71.02;98660.94;5012134;28;20062;-75
2022/04/01 06:25:44;;;;;;;11.52;7.15;;;;;;;2.64;71.35;98625.69;5011989;28;20591;-75
2022/04/01 06:28:34;;;;;;;10.95;7.90;;;;;;;2.79;71.00;98660.00;5011901;28;20116;-76
2022/04/01 06:31:04;;;;;;;17.33;11.15;;;;;;;2.59;71.95;98620.50;5011140;28;20516;-75
2022/04/01 06:33:35;;;;;;;12.32;8.40;;;;;;;2.83;71.20;98639.53;4963714;28;20042;-75
2022/04/01 06:36:41;;;;;;;11.63;7.93;;;;;;;2.69;71.79;98622.31;5023662;28;20048;-76
2022/04/01 06:39:13;;;;;;;9.32;6.40;;;;;;;2.74;71.24;98635.16;4998098;28;20038;-77
2022/04/01 06:41:47;;;;;;;8.57;5.95;;;;;;;2.63;71.06;98635.06;4979115;28;20045;-76
2022/04/01 06:44:32;;;;;;;10.50;6.53;;;;;;;2.64;71.35;98630.78;4986756;28;20097;-75
2022/04/01 06:47:17;;;;;;;8.63;6.03;;;;;;;2.77;70.77;98636.06;5006393;28;20117;-75
2022/04/01 06:49:43;;;;;;;9.32;6.18;;;;;;;2.84;70.82;98641.25;4996209;28;20509;-79
2022/04/01 06:52:32;;;;;;;8.27;5.53;;;;;;;2.99;69.90;98641.41;4985745;28;20051;-75
2022/04/01 06:54:58;;;;;;;7.80;5.40;;;;;;;2.90;70.26;98619.13;4970089;28;20045;-75
2022/04/01 06:57:24;;;;;;;9.27;5.40;;;;;;;3.24;70.65;98652.75;5011358;28;20053;-77
2022/04/01 07:00:11;;;;;;;6.90;4.88;;;;;;;3.38;69.50;98651.16;4984996;28;20050;-76
2022/04/01 07:02:37;;;;;;;7.63;5.38;;;;;;;3.33;68.25;98641.72;4973555;28;20058;-76
2022/04/01 07:05:03;;;;;;;6.72;4.65;;;;;;;3.58;68.32;98663.28;4969240;28;20054;-76
2022/04/01 07:07:29;;;;;;;8.93;5.38;;;;;;;3.39;68.22;98623.81;4978368;28;20059;-76
2022/04/01 07:09:55;;;;;;;9.90;6.40;;;;;;;3.35;68.10;98612.69;4994878;28;20046;-77
2022/04/01 07:12:23;;;;;;;7.43;5.18;;;;;;;3.52;68.11;98648.69;4994643;28;20088;-77
2022/04/01 07:14:50;;;;;;;7.75;5.15;;;;;;;3.51;67.82;98642.72;4979144;28;20038;-77
2022/04/01 07:17:16;;;;;;;11.70;7.72;;;;;;;3.60;67.81;98648.75;4978096;28;20038;-74
2022/04/01 07:19:41;;;;;;;8.10;5.57;;;;;;;3.77;67.51;98660.00;5010693;28;20516;-76
2022/04/01 07:22:07;;;;;;;7.60;4.93;;;;;;;3.59;67.06;98639.38;4994385;28;20072;-75
2022/04/01 07:24:33;;;;;;;;;;;;;;;3.68;66.77;98680.47;4978862;28;20515;-75
2022/04/01 07:27:00;;;;;;;8.38;5.13;;;;;;;3.36;67.50;98636.63;4995082;28;19960;-76
2022/04/01 07:29:27;;;;;;;8.75;4.95;;;;;;;3.47;67.63;98635.84;4994859;28;20033;-76
2022/04/01 07:34:40;;;;;;;6.95;4.82;;;;;;;3.72;67.15;98643.72;4995112;28;20409;-76
2022/04/01 07:37:05;;;;;;;6.07;4.80;;;;;;;3.82;66.81;98650.63;4994374;28;20034;-77
2022/04/01 07:39:32;;;;;;;7.75;5.28;;;;;;;3.85;66.49;98648.09;4971522;28;20077;-76
2022/04/01 07:41:57;;;;;;;;;;;;;;;4.12;65.70;98679.88;5005138;28;20038;-75
2022/04/01 07:44:23;;;;;;;8.95;6.03;;;;;;;3.88;66.37;98642.97;4975344;28;19918;-75
2022/04/01 07:46:50;;;;;;;8.90;6.55;;;;;;;4.11;67.02;98644.81;5014035;28;20073;-76
2022/04/01 07:49:16;;;;;;;9.55;6.07;;;;;;;4.21;65.24;98646.56;5010306;28;20409;-75
2022/04/01 07:51:43;;;;;;;8.93;5.95;;;;;;;4.33;64.91;98654.34;4978661;28;20121;-77
2022/04/01 07:54:13;;;;;;;7.78;5.50;;;;;;;4.40;64.70;98648.41;4993993;28;20042;-77
2022/04/01 07:56:40;;;;;;;8.20;5.30;;;;;;;4.38;65.41;98624.41;5009303;28;20038;-78
2022/04/01 07:59:10;;;;;;;10.23;7.13;;;;;;;4.55;64.86;98648.44;4979751;28;20031;-76
2022/04/01 08:01:36;;;;;;;11.35;7.07;;;;;;;4.48;63.95;98626.16;4959069;28;20038;-77
2022/04/01 08:04:02;;;;;;;8.23;5.72;;;;;;;4.62;63.26;98621.06;4959365;28;20126;-77
2022/04/01 08:06:30;;;;;;;8.10;5.47;;;;;;;4.90;63.27;98673.38;4974598;28;20046;-77
2022/04/01 08:08:58;;;;;;;7.13;5.32;;;;;;;4.62;63.21;98633.91;4975113;28;20056;-76
2022/04/01 08:11:27;;;;;;;9.35;5.60;;;;;;;4.92;64.08;98665.69;4975719;28;20046;-77
2022/04/01 08:13:54;;;;;;;10.27;5.55;;;;;;;4.84;62.67;98639.97;4960247;28;20409;-78
2022/04/01 08:16:20;;;;;;;7.45;5.35;;;;;;;4.78;62.81;98619.41;4974793;28;20417;-78
2022/04/01 08:18:46;;;;;;;7.32;5.28;;;;;;;5.01;63.07;98647.72;4977333;28;20035;-77
2022/04/01 08:21:11;;;;;;;8.23;5.55;;;;;;;5.14;62.38;98646.03;4976523;28;20054;-76
2022/04/01 08:23:37;;;;;;;8.27;5.93;;;;;;;5.05;61.16;98628.88;4991508;28;20034;-76
2022/04/01 08:26:04;;;;;;;10.77;5.88;;;;;;;4.92;61.87;98643.41;4956691;28;20047;-77
2022/04/01 08:28:30;;;;;;;12.00;7.05;;;;;;;4.88;62.40;98640.84;4990910;28;20053;-77
2022/04/01 08:30:55;;;;;;;;;;;;;;;5.06;61.09;98659.72;4938172;28;20038;-77
2022/04/01 08:33:21;;;;;;;12.68;6.38;;;;;;;4.70;61.54;98628.78;5026592;28;20269;-76
2022/04/01 08:35:47;;;;;;;8.93;6.13;;;;;;;4.47;62.53;98603.91;5011041;28;20490;-76
2022/04/01 08:38:13;;;;;;;;;;;;;;;4.76;63.00;98651.94;4995876;28;20501;-78
2022/04/01 08:40:39;;;;;;;10.30;6.28;;;;;;;4.75;62.68;98645.06;4995275;28;19965;-78
2022/04/01 08:43:05;;;;;;;7.45;5.65;;;;;;;4.70;62.88;98619.38;4995278;28;20472;-79
2022/04/01 08:45:36;;;;;;;8.77;5.72;;;;;;;4.59;62.68;98588.53;4998113;28;20058;-76
2022/04/01 08:48:06;;;;;;;8.50;5.80;;;;;;;4.94;61.56;98641.69;4993695;28;20129;-76
2022/04/01 08:50:32;;;;;;;6.90;4.70;;;;;;;4.87;61.83;98627.13;5009998;28;20038;-76
2022/04/01 08:52:59;;;;;;;7.43;5.25;;;;;;;5.02;61.67;98642.56;4993594;28;20125;-79
2022/04/01 08:55:24;;;;;;;8.50;5.10;;;;;;;5.00;61.25;98636.59;4992935;28;20034;-78
2022/04/01 08:57:51;;;;;;;8.95;5.13;;;;;;;4.73;61.68;98598.84;5019727;28;20045;-76
2022/04/01 09:00:16;;;;;;;7.22;4.60;;;;;;;4.94;61.90;98631.41;5001945;28;20042;-78
2022/04/01 09:02:43;;;;;;;9.57;4.85;;;;;;;4.99;61.51;98627.13;5021778;28;20045;-78
2022/04/01 09:05:09;;;;;;;11.52;5.40;;;;;;;4.89;61.33;98599.72;4983717;28;20485;-78
2022/04/01 09:07:34;;;;;;;;;;;;;;;5.09;61.04;98641.75;4992677;28;20525;-78
2022/04/01 09:10:07;;;;;;;6.68;4.57;;;;;;;4.94;61.11;98616.00;5009157;28;20015;-77
2022/04/01 09:12:36;;;;;;;8.05;4.68;;;;;;;4.86;61.15;98607.44;4979313;28;20414;-76
2022/04/01 09:15:03;;;;;;;7.75;4.38;;;;;;;4.67;60.36;98590.25;5025383;28;20066;-77
2022/04/01 09:17:42;;;;;;;8.40;4.60;;;;;;;4.69;60.92;98583.41;5009122;28;20092;-77
2022/04/01 09:20:10;;;;;;;6.10;4.13;;;;;;;4.81;60.81;98596.25;4992558;28;20041;-77
2022/04/01 09:22:36;;;;;;;6.90;4.15;;;;;;;4.95;60.83;98594.59;4976635;28;20137;-78
2022/04/01 09:25:05;;;;;;;9.70;3.83;;;;;;;5.04;60.11;98591.16;4992588;28;20487;-76
2022/04/01 09:27:47;;;;;;;9.30;4.05;;;;;;;5.13;59.76;98580.03;5009390;28;20177;-75
2022/04/01 09:30:18;;;;;;;6.28;4.05;;;;;;;5.47;59.81;98625.47;4992838;28;20132;-76
2022/04/01 09:32:49;;;;;;;5.47;3.50;;;;;;;5.43;59.07;98586.88;5008330;28;20055;-76
2022/04/01 09:35:15;;;;;;;5.60;4.03;;;;;;;5.43;58.97;98616.03;4985564;28;20039;-75
2022/04/01 09:37:45;;;;;;;6.28;3.95;;;;;;;5.31;59.72;98604.06;5009147;28;20405;-77
2022/04/01 09:40:13;;;;;;;7.13;4.45;;;;;;;5.07;59.18;98597.16;5008340;28;20042;-76
2022/04/01 09:42:45;;;;;;;14.65;8.80;;;;;;;4.81;60.35;98580.84;4992952;28;20035;-77
2022/04/01 09:45:13;;;;;;;7.90;4.80;;;;;;;4.85;60.45;98595.41;4964725;28;20121;-78
2022/04/01 09:47:39;;;;;;;12.55;4.40;;;;;;;4.83;60.93;98579.16;5005546;28;20106;-76
2022/04/01 09:50:10;;;;;;;5.63;4.03;;;;;;;4.94;60.96;98602.28;4970734;28;20081;-78
2022/04/01 09:52:36;;;;;;;8.63;4.32;;;;;;;4.85;60.63;98596.28;4982717;28;20121;-76
2022/04/01 09:55:02;;;;;;;8.25;4.55;;;;;;;4.64;60.78;98579.97;5012593;28;20089;-76
2022/04/01 09:57:28;;;;;;;5.78;3.95;;;;;;;4.65;61.27;98586.84;4979975;28;20042;-76
2022/04/01 09:59:54;;;;;;;5.30;3.60;;;;;;;4.58;61.38;98578.22;5012371;28;20038;-75
2022/04/01 10:02:20;;;;;;;8.20;3.60;;;;;;;4.45;61.27;98567.09;4996301;28;20038;-77
2022/04/01 10:04:46;;;;;;;9.48;3.53;;;;;;;4.34;61.54;98543.94;4990638;28;20035;-75
2022/04/01 10:07:12;;;;;;;;;;;;;;;4.72;61.75;98580.84;5018635;28;20085;-75
2022/04/01 10:09:38;;;;;;;5.75;3.38;;;;;;;4.61;60.92;98559.41;5011951;28;19918;-75
2022/04/01 10:12:08;;;;;;;6.43;3.72;;;;;;;4.52;61.48;98561.09;4972086;28;20078;-77
2022/04/01 10:14:33;;;;;;;6.70;3.97;;;;;;;4.36;61.67;98536.25;4990590;28;20456;-76
2022/04/01 10:17:00;;;;;;;6.65;4.18;;;;;;;4.38;61.48;98542.25;5006469;28;20037;-77
2022/04/01 10:19:29;;;;;;;8.90;4.65;;;;;;;4.49;62.16;98563.69;4989344;28;20457;-78
2022/04/01 10:21:55;;;;;;;6.80;4.70;;;;;;;4.47;62.36;98559.38;4995282;28;20038;-76
2022/04/01 10:24:36;;;;;;;6.38;4.72;;;;;;;4.65;61.92;98576.56;4981493;28;20038;-77
2022/04/01 10:27:06;;;;;;;8.65;5.10;;;;;;;4.61;61.84;98570.53;4996480;28;20038;-77
2022/04/01 10:29:32;;;;;;;13.57;7.85;;;;;;;4.29;62.89;98544.78;4980776;28;20129;-80
2022/04/01 10:32:23;;;;;;;7.63;5.13;;;;;;;4.48;62.37;98573.94;4995313;28;20113;-76
2022/04/01 10:34:55;;;;;;;9.40;4.72;;;;;;;4.40;63.39;98547.38;4984134;28;20035;-77
2022/04/01 10:37:22;;;;;;;7.15;4.50;;;;;;;4.61;63.28;98562.00;4976368;28;20053;-76
2022/04/01 10:39:59;;;;;;;5.68;4.50;;;;;;;4.37;62.92;98512.28;4947998;29;20530;-76
2022/04/01 10:42:31;;;;;;;;;;;;;;;4.72;62.53;98560.28;5007874;28;20042;-78
2022/04/01 10:45:00;;;;;;;7.25;4.50;;;;;;;4.58;63.10;98555.13;5009175;28;19968;-76
2022/04/01 10:53:45;;;;;;;6.25;4.03;;;;;;;4.12;65.78;98523.31;4994939;28;20444;-79
2022/04/01 10:56:26;;;;;;;6.97;3.88;;;;;;;4.33;65.99;98552.50;4997422;28;20049;-77
2022/04/01 10:59:08;;;;;;;4.60;3.70;;;;;;;4.27;65.82;98557.63;5043969;28;20038;-77
2022/04/01 11:01:53;;;;;;;7.38;4.68;;;;;;;4.22;66.10;98543.06;5027663;28;20120;-75
2022/04/01 11:04:18;;;;;;;7.40;4.40;;;;;;;4.21;67.15;98543.91;4996343;28;20034;-77
2022/04/01 11:07:06;;;;;;;5.47;4.22;;;;;;;4.25;67.85;98540.50;4996136;28;20041;-77
2022/04/01 11:09:47;;;;;;;6.88;4.72;;;;;;;4.34;67.56;98538.81;4974063;28;20045;-75
2022/04/01 11:12:16;;;;;;;7.57;5.10;;;;;;;4.33;67.05;98528.53;5003449;28;20042;-77
2022/04/01 11:15:12;;;;;;;6.53;5.15;;;;;;;4.33;68.28;98529.41;4994687;28;20401;-74
2022/04/01 11:17:38;;;;;;;10.45;6.50;;;;;;;4.33;67.93;98521.69;5017582;28;20146;-77
2022/04/01 11:20:04;;;;;;;6.78;4.97;;;;;;;4.25;67.91;98494.28;4965835;28;20086;-76
2022/04/01 11:22:34;;;;;;;6.30;5.10;;;;;;;4.29;67.03;98519.13;5027587;28;20053;-75
2022/04/01 11:24:59;;;;;;;6.28;4.75;;;;;;;4.28;68.20;98514.84;5043469;28;20041;-79
2022/04/01 11:27:25;;;;;;;8.40;5.10;;;;;;;4.21;68.06;98513.94;4984638;28;20038;-75
2022/04/01 11:30:06;;;;;;;6.75;4.75;;;;;;;4.08;69.35;98491.69;4979849;28;20053;-76
2022/04/01 11:32:34;;;;;;;7.13;4.75;;;;;;;4.28;69.03;98509.69;4999480;28;20058;-78
2022/04/01 11:35:00;;;;;;;6.93;5.10;;;;;;;4.24;68.54;98498.56;4944960;28;20038;-76
2022/04/01 11:37:25;;;;;;;6.30;5.03;;;;;;;4.00;68.58;98471.13;4994360;28;20045;-75
2022/04/01 11:39:51;;;;;;;7.45;5.18;;;;;;;4.07;68.71;98459.16;4994106;28;20034;-79
2022/04/01 11:42:17;;;;;;;7.43;5.22;;;;;;;4.13;67.89;98466.03;4995783;28;20157;-76
2022/04/01 11:44:56;;;;;;;10.48;8.20;;;;;;;4.07;68.87;98469.41;5000166;28;20133;-75
2022/04/01 11:47:37;;;;;;;7.90;5.25;;;;;;;3.98;69.19;98448.88;5024295;28;20129;-77
2022/04/01 11:50:07;;;;;;;6.80;4.78;;;;;;;3.93;69.11;98446.28;4998149;28;20046;-76
2022/04/01 11:52:44;;;;;;;7.22;4.90;;;;;;;4.11;69.61;98475.44;4995356;28;20057;-77
2022/04/01 11:55:14;;;;;;;6.10;4.53;;;;;;;4.21;69.50;98461.75;5011053;28;20046;-75
2022/04/01 11:57:40;;;;;;;7.78;4.57;;;;;;;4.21;67.99;98456.63;4977965;28;20493;-76
2022/04/01 12:00:15;;;;;;;6.43;4.60;;;;;;;4.07;68.74;98438.63;4977967;28;20124;-78
2022/04/01 12:02:41;;;;;;;4.97;3.63;;;;;;;4.37;69.28;98478.06;4964933;28;20065;-78
2022/04/01 12:05:08;;;;;;;5.72;3.83;;;;;;;4.29;67.71;98465.19;5004907;28;20063;-76
2022/04/01 12:10:26;;;;;;;6.55;4.07;;;;;;;4.10;67.69;98441.22;4997625;28;20038;-78